Terminal Aerodrome Forecast
Issued by NWS Wichita, KS

Home | Current Version | Previous Version | Graphics & Text | Print | Product List | Glossary On
Versions: 1 2 3 4 5 6 7 8 9 10 11 12 13 14 15 16 17
000
FTUS43 KICT 170700 AAA
TAFICT
TAF AMD
KICT 170759Z 1708/1806 17006KT P6SM SCT020
      TEMPO 1709/1713 BKN018
     FM171500 20010KT P6SM SCT040
      TEMPO 1715/1718 BKN025
     FM172300 16008KT P6SM SCT035=

USA.gov is the U.S. government's official web portal to all federal, state and local government web resources and services.